sensor_id;sensor_type;location;lat;lon;timestamp;temperature;humidity
65584;DHT22;70321;43.592;1.456;2023-07-13T00:00:11;23.25;74.56
65584;DHT22;70321;43.592;1.456;2023-07-13T00:02:38;23.19;73.97
65584;DHT22;70321;43.592;1.456;2023-07-13T00:05:06;23.18;74.81
65584;DHT22;70321;43.592;1.456;2023-07-13T00:07:34;23.12;74.60
65584;DHT22;70321;43.592;1.456;2023-07-13T00:10:01;23.11;74.87
65584;DHT22;70321;43.592;1.456;2023-07-13T00:12:31;23.11;74.90
65584;DHT22;70321;43.592;1.456;2023-07-13T00:15:00;23.08;75.12
65584;DHT22;70321;43.592;1.456;2023-07-13T00:17:27;23.08;75.30
65584;DHT22;70321;43.592;1.456;2023-07-13T00:19:55;23.04;75.04
65584;DHT22;70321;43.592;1.456;2023-07-13T00:22:23;22.99;74.96
65584;DHT22;70321;43.592;1.456;2023-07-13T00:24:53;22.94;75.39
65584;DHT22;70321;43.592;1.456;2023-07-13T00:27:22;22.92;75.42
65584;DHT22;70321;43.592;1.456;2023-07-13T00:29:49;22.92;75.63
65584;DHT22;70321;43.592;1.456;2023-07-13T00:32:16;22.94;75.75
65584;DHT22;70321;43.592;1.456;2023-07-13T00:34:42;22.90;75.68
65584;DHT22;70321;43.592;1.456;2023-07-13T00:37:10;22.90;75.83
65584;DHT22;70321;43.592;1.456;2023-07-13T00:39:38;22.85;75.30
65584;DHT22;70321;43.592;1.456;2023-07-13T00:42:06;22.85;75.70
65584;DHT22;70321;43.592;1.456;2023-07-13T00:44:32;22.88;75.97
65584;DHT22;70321;43.592;1.456;2023-07-13T00:47:00;22.85;75.54
65584;DHT22;70321;43.592;1.456;2023-07-13T00:49:29;22.81;75.13
65584;DHT22;70321;43.592;1.456;2023-07-13T00:52:03;22.83;75.40
65584;DHT22;70321;43.592;1.456;2023-07-13T00:54:37;22.78;75.43
65584;DHT22;70321;43.592;1.456;2023-07-13T00:57:09;22.74;75.46
65584;DHT22;70321;43.592;1.456;2023-07-13T00:59:40;22.71;75.46
65584;DHT22;70321;43.592;1.456;2023-07-13T01:02:08;22.72;75.44
65584;DHT22;70321;43.592;1.456;2023-07-13T01:04:34;22.74;75.26
65584;DHT22;70321;43.592;1.456;2023-07-13T01:07:01;22.69;75.26
65584;DHT22;70321;43.592;1.456;2023-07-13T01:09:28;22.69;75.18
65584;DHT22;70321;43.592;1.456;2023-07-13T01:11:54;22.69;75.40
65584;DHT22;70321;43.592;1.456;2023-07-13T01:14:21;22.68;75.19
65584;DHT22;70321;43.592;1.456;2023-07-13T01:16:49;22.69;75.50
65584;DHT22;70321;43.592;1.456;2023-07-13T01:19:25;22.69;75.25
65584;DHT22;70321;43.592;1.456;2023-07-13T01:22:04;22.65;75.07
65584;DHT22;70321;43.592;1.456;2023-07-13T01:24:36;22.64;74.70
65584;DHT22;70321;43.592;1.456;2023-07-13T01:27:03;22.58;74.58
65584;DHT22;70321;43.592;1.456;2023-07-13T01:29:31;22.58;74.68
65584;DHT22;70321;43.592;1.456;2023-07-13T01:31:57;22.54;74.90
65584;DHT22;70321;43.592;1.456;2023-07-13T01:34:24;22.51;75.16
65584;DHT22;70321;43.592;1.456;2023-07-13T01:36:51;22.48;74.85
65584;DHT22;70321;43.592;1.456;2023-07-13T01:39:23;22.45;74.79
65584;DHT22;70321;43.592;1.456;2023-07-13T01:41:50;22.45;75.35
65584;DHT22;70321;43.592;1.456;2023-07-13T01:44:16;22.44;75.76
65584;DHT22;70321;43.592;1.456;2023-07-13T01:46:43;22.40;74.99
65584;DHT22;70321;43.592;1.456;2023-07-13T01:49:10;22.40;75.03
65584;DHT22;70321;43.592;1.456;2023-07-13T01:51:37;22.39;74.84
65584;DHT22;70321;43.592;1.456;2023-07-13T01:54:03;22.30;74.58
65584;DHT22;70321;43.592;1.456;2023-07-13T01:56:30;22.27;74.71
65584;DHT22;70321;43.592;1.456;2023-07-13T01:58:57;22.25;74.98
65584;DHT22;70321;43.592;1.456;2023-07-13T02:01:24;22.21;74.67
65584;DHT22;70321;43.592;1.456;2023-07-13T02:03:50;22.18;74.95
65584;DHT22;70321;43.592;1.456;2023-07-13T02:06:17;22.13;74.05
65584;DHT22;70321;43.592;1.456;2023-07-13T02:08:44;22.07;73.84
65584;DHT22;70321;43.592;1.456;2023-07-13T02:11:11;21.99;73.84
65584;DHT22;70321;43.592;1.456;2023-07-13T02:13:38;21.96;74.17
65584;DHT22;70321;43.592;1.456;2023-07-13T02:16:05;21.96;74.20
65584;DHT22;70321;43.592;1.456;2023-07-13T02:18:33;21.96;74.13
65584;DHT22;70321;43.592;1.456;2023-07-13T02:20:59;21.92;74.21
65584;DHT22;70321;43.592;1.456;2023-07-13T02:23:26;21.89;74.13
65584;DHT22;70321;43.592;1.456;2023-07-13T02:25:57;21.82;74.02
65584;DHT22;70321;43.592;1.456;2023-07-13T02:28:24;21.78;74.30
65584;DHT22;70321;43.592;1.456;2023-07-13T02:30:51;21.76;74.29
65584;DHT22;70321;43.592;1.456;2023-07-13T02:33:18;21.67;73.91
65584;DHT22;70321;43.592;1.456;2023-07-13T02:35:44;21.62;73.91
65584;DHT22;70321;43.592;1.456;2023-07-13T02:38:11;21.63;74.25
65584;DHT22;70321;43.592;1.456;2023-07-13T02:40:38;21.62;74.01
65584;DHT22;70321;43.592;1.456;2023-07-13T02:43:05;21.58;73.88
65584;DHT22;70321;43.592;1.456;2023-07-13T02:45:31;21.58;73.52
65584;DHT22;70321;43.592;1.456;2023-07-13T02:47:58;21.50;73.48
65584;DHT22;70321;43.592;1.456;2023-07-13T02:50:25;21.43;73.68
65584;DHT22;70321;43.592;1.456;2023-07-13T02:52:51;21.43;73.66
65584;DHT22;70321;43.592;1.456;2023-07-13T02:55:18;21.43;73.63
65584;DHT22;70321;43.592;1.456;2023-07-13T02:57:45;21.42;73.24
65584;DHT22;70321;43.592;1.456;2023-07-13T03:00:12;21.43;72.75
65584;DHT22;70321;43.592;1.456;2023-07-13T03:02:38;21.36;72.34
65584;DHT22;70321;43.592;1.456;2023-07-13T03:05:05;21.26;72.15
65584;DHT22;70321;43.592;1.456;2023-07-13T03:07:32;21.22;72.21
65584;DHT22;70321;43.592;1.456;2023-07-13T03:09:59;21.12;70.91
65584;DHT22;70321;43.592;1.456;2023-07-13T03:12:25;21.02;70.67
65584;DHT22;70321;43.592;1.456;2023-07-13T03:14:52;20.95;71.02
65584;DHT22;70321;43.592;1.456;2023-07-13T03:17:22;20.84;69.77
65584;DHT22;70321;43.592;1.456;2023-07-13T03:19:51;20.81;69.92
65584;DHT22;70321;43.592;1.456;2023-07-13T03:22:18;20.75;70.04
65584;DHT22;70321;43.592;1.456;2023-07-13T03:24:45;20.70;69.78
65584;DHT22;70321;43.592;1.456;2023-07-13T03:27:12;20.65;69.58
65584;DHT22;70321;43.592;1.456;2023-07-13T03:29:39;20.65;69.74
65584;DHT22;70321;43.592;1.456;2023-07-13T03:32:06;20.61;69.56
65584;DHT22;70321;43.592;1.456;2023-07-13T03:34:32;20.65;69.99
65584;DHT22;70321;43.592;1.456;2023-07-13T03:36:59;20.73;70.35
65584;DHT22;70321;43.592;1.456;2023-07-13T03:39:26;20.77;70.26
65584;DHT22;70321;43.592;1.456;2023-07-13T03:41:53;20.74;69.91
65584;DHT22;70321;43.592;1.456;2023-07-13T03:44:19;20.78;70.11
65584;DHT22;70321;43.592;1.456;2023-07-13T03:46:46;20.77;69.55
65584;DHT22;70321;43.592;1.456;2023-07-13T03:49:13;20.74;70.43
65584;DHT22;70321;43.592;1.456;2023-07-13T03:51:40;20.67;69.88
65584;DHT22;70321;43.592;1.456;2023-07-13T03:54:06;20.70;70.46
65584;DHT22;70321;43.592;1.456;2023-07-13T03:56:33;20.68;70.54
65584;DHT22;70321;43.592;1.456;2023-07-13T03:59:00;20.67;70.44
65584;DHT22;70321;43.592;1.456;2023-07-13T04:01:26;20.63;70.32
65584;DHT22;70321;43.592;1.456;2023-07-13T04:03:53;20.63;70.57
65584;DHT22;70321;43.592;1.456;2023-07-13T04:06:23;20.61;70.87
65584;DHT22;70321;43.592;1.456;2023-07-13T04:08:56;20.64;70.80
65584;DHT22;70321;43.592;1.456;2023-07-13T04:11:25;20.63;71.04
65584;DHT22;70321;43.592;1.456;2023-07-13T04:13:52;20.51;70.51
65584;DHT22;70321;43.592;1.456;2023-07-13T04:16:19;20.50;70.95
65584;DHT22;70321;43.592;1.456;2023-07-13T04:18:47;20.43;70.63
65584;DHT22;70321;43.592;1.456;2023-07-13T04:21:15;20.43;70.91
65584;DHT22;70321;43.592;1.456;2023-07-13T04:23:42;20.41;70.97
65584;DHT22;70321;43.592;1.456;2023-07-13T04:26:09;20.39;71.13
65584;DHT22;70321;43.592;1.456;2023-07-13T04:28:36;20.33;70.90
65584;DHT22;70321;43.592;1.456;2023-07-13T04:31:03;20.36;71.50
65584;DHT22;70321;43.592;1.456;2023-07-13T04:33:30;20.37;71.29
65584;DHT22;70321;43.592;1.456;2023-07-13T04:35:57;20.40;70.68
65584;DHT22;70321;43.592;1.456;2023-07-13T04:38:25;20.37;70.93
65584;DHT22;70321;43.592;1.456;2023-07-13T04:40:58;20.30;70.43
65584;DHT22;70321;43.592;1.456;2023-07-13T04:43:26;20.30;71.15
65584;DHT22;70321;43.592;1.456;2023-07-13T04:45:53;20.26;70.74
65584;DHT22;70321;43.592;1.456;2023-07-13T04:48:24;20.21;70.74
65584;DHT22;70321;43.592;1.456;2023-07-13T04:50:55;20.20;70.64
65584;DHT22;70321;43.592;1.456;2023-07-13T04:53:22;20.12;70.91
65584;DHT22;70321;43.592;1.456;2023-07-13T04:55:49;20.03;70.84
65584;DHT22;70321;43.592;1.456;2023-07-13T04:58:16;19.97;70.75
65584;DHT22;70321;43.592;1.456;2023-07-13T05:00:43;20.01;71.24
65584;DHT22;70321;43.592;1.456;2023-07-13T05:03:09;20.03;70.50
65584;DHT22;70321;43.592;1.456;2023-07-13T05:05:36;20.01;70.21
65584;DHT22;70321;43.592;1.456;2023-07-13T05:08:03;19.99;69.88
65584;DHT22;70321;43.592;1.456;2023-07-13T05:10:30;20.01;70.59
65584;DHT22;70321;43.592;1.456;2023-07-13T05:12:57;20.03;70.56
65584;DHT22;70321;43.592;1.456;2023-07-13T05:15:24;20.07;70.27
65584;DHT22;70321;43.592;1.456;2023-07-13T05:17:51;20.05;69.56
65584;DHT22;70321;43.592;1.456;2023-07-13T05:20:19;19.99;69.55
65584;DHT22;70321;43.592;1.456;2023-07-13T05:22:46;20.03;69.88
65584;DHT22;70321;43.592;1.456;2023-07-13T05:25:17;20.01;69.27
65584;DHT22;70321;43.592;1.456;2023-07-13T05:27:44;20.00;69.16
65584;DHT22;70321;43.592;1.456;2023-07-13T05:30:12;20.00;68.99
65584;DHT22;70321;43.592;1.456;2023-07-13T05:32:39;20.00;69.49
65584;DHT22;70321;43.592;1.456;2023-07-13T05:35:07;20.03;69.53
65584;DHT22;70321;43.592;1.456;2023-07-13T05:37:34;20.05;68.69
65584;DHT22;70321;43.592;1.456;2023-07-13T05:40:00;20.09;69.50
65584;DHT22;70321;43.592;1.456;2023-07-13T05:42:30;20.14;69.22
65584;DHT22;70321;43.592;1.456;2023-07-13T05:45:01;20.17;68.80
65584;DHT22;70321;43.592;1.456;2023-07-13T05:47:28;20.14;68.82
65584;DHT22;70321;43.592;1.456;2023-07-13T05:49:55;20.10;67.73
65584;DHT22;70321;43.592;1.456;2023-07-13T05:52:21;20.10;68.07
65584;DHT22;70321;43.592;1.456;2023-07-13T05:54:48;20.14;68.53
65584;DHT22;70321;43.592;1.456;2023-07-13T05:57:15;20.13;67.52
65584;DHT22;70321;43.592;1.456;2023-07-13T05:59:41;20.09;67.79
65584;DHT22;70321;43.592;1.456;2023-07-13T06:02:09;20.12;68.43
65584;DHT22;70321;43.592;1.456;2023-07-13T06:04:37;20.17;68.59
65584;DHT22;70321;43.592;1.456;2023-07-13T06:07:04;20.16;68.54
65584;DHT22;70321;43.592;1.456;2023-07-13T06:09:31;20.20;68.74
65584;DHT22;70321;43.592;1.456;2023-07-13T06:11:57;20.19;67.77
65584;DHT22;70321;43.592;1.456;2023-07-13T06:14:24;20.24;68.35
65584;DHT22;70321;43.592;1.456;2023-07-13T06:16:51;20.27;69.11
65584;DHT22;70321;43.592;1.456;2023-07-13T06:19:18;20.33;68.84
65584;DHT22;70321;43.592;1.456;2023-07-13T06:21:44;20.40;68.91
65584;DHT22;70321;43.592;1.456;2023-07-13T06:24:11;20.44;68.44
65584;DHT22;70321;43.592;1.456;2023-07-13T06:26:38;20.41;67.50
65584;DHT22;70321;43.592;1.456;2023-07-13T06:29:04;20.37;67.60
65584;DHT22;70321;43.592;1.456;2023-07-13T06:31:31;20.41;68.07
65584;DHT22;70321;43.592;1.456;2023-07-13T06:33:58;20.45;67.84
65584;DHT22;70321;43.592;1.456;2023-07-13T06:36:25;20.41;67.71
65584;DHT22;70321;43.592;1.456;2023-07-13T06:38:51;20.39;67.65
65584;DHT22;70321;43.592;1.456;2023-07-13T06:41:18;20.41;69.01
65584;DHT22;70321;43.592;1.456;2023-07-13T06:43:45;20.48;68.76
65584;DHT22;70321;43.592;1.456;2023-07-13T06:46:11;20.50;68.65
65584;DHT22;70321;43.592;1.456;2023-07-13T06:48:38;20.45;68.03
65584;DHT22;70321;43.592;1.456;2023-07-13T06:51:08;20.44;69.10
65584;DHT22;70321;43.592;1.456;2023-07-13T06:53:35;20.48;68.69
65584;DHT22;70321;43.592;1.456;2023-07-13T06:56:02;20.48;68.94
65584;DHT22;70321;43.592;1.456;2023-07-13T06:58:29;20.48;68.15
65584;DHT22;70321;43.592;1.456;2023-07-13T07:00:55;20.53;68.66
65584;DHT22;70321;43.592;1.456;2023-07-13T07:03:22;20.53;67.59
65584;DHT22;70321;43.592;1.456;2023-07-13T07:05:49;20.51;67.40
65584;DHT22;70321;43.592;1.456;2023-07-13T07:08:16;20.51;67.64
65584;DHT22;70321;43.592;1.456;2023-07-13T07:10:42;20.47;67.90
65584;DHT22;70321;43.592;1.456;2023-07-13T07:13:09;20.47;67.68
65584;DHT22;70321;43.592;1.456;2023-07-13T07:15:36;20.48;68.07
65584;DHT22;70321;43.592;1.456;2023-07-13T07:18:03;20.51;67.96
65584;DHT22;70321;43.592;1.456;2023-07-13T07:20:30;20.55;68.35
65584;DHT22;70321;43.592;1.456;2023-07-13T07:22:59;20.57;67.15
65584;DHT22;70321;43.592;1.456;2023-07-13T07:25:26;20.57;67.71
65584;DHT22;70321;43.592;1.456;2023-07-13T07:27:53;20.61;67.86
65584;DHT22;70321;43.592;1.456;2023-07-13T07:30:22;20.65;67.64
65584;DHT22;70321;43.592;1.456;2023-07-13T07:32:52;20.65;67.16
65584;DHT22;70321;43.592;1.456;2023-07-13T07:35:23;20.65;66.20
65584;DHT22;70321;43.592;1.456;2023-07-13T07:37:50;20.65;65.82
65584;DHT22;70321;43.592;1.456;2023-07-13T07:40:18;20.71;67.05
65584;DHT22;70321;43.592;1.456;2023-07-13T07:42:48;20.77;66.96
65584;DHT22;70321;43.592;1.456;2023-07-13T07:45:15;20.84;65.70
65584;DHT22;70321;43.592;1.456;2023-07-13T07:47:41;20.88;65.96
65584;DHT22;70321;43.592;1.456;2023-07-13T07:50:09;20.98;66.29
65584;DHT22;70321;43.592;1.456;2023-07-13T07:52:36;21.01;65.97
65584;DHT22;70321;43.592;1.456;2023-07-13T07:55:07;21.02;65.39
65584;DHT22;70321;43.592;1.456;2023-07-13T07:57:37;21.05;65.54
65584;DHT22;70321;43.592;1.456;2023-07-13T08:00:07;21.01;64.33
65584;DHT22;70321;43.592;1.456;2023-07-13T08:02:36;21.08;65.39
65584;DHT22;70321;43.592;1.456;2023-07-13T08:05:07;21.12;64.95
65584;DHT22;70321;43.592;1.456;2023-07-13T08:07:38;21.22;65.85
65584;DHT22;70321;43.592;1.456;2023-07-13T08:10:06;21.28;65.05
65584;DHT22;70321;43.592;1.456;2023-07-13T08:12:37;21.34;64.74
65584;DHT22;70321;43.592;1.456;2023-07-13T08:15:11;21.41;63.54
65584;DHT22;70321;43.592;1.456;2023-07-13T08:17:39;21.39;62.92
65584;DHT22;70321;43.592;1.456;2023-07-13T08:20:07;21.41;63.84
65584;DHT22;70321;43.592;1.456;2023-07-13T08:22:35;21.46;65.01
65584;DHT22;70321;43.592;1.456;2023-07-13T08:25:03;21.39;63.84
65584;DHT22;70321;43.592;1.456;2023-07-13T08:27:29;21.32;64.23
65584;DHT22;70321;43.592;1.456;2023-07-13T08:29:56;21.25;64.43
65584;DHT22;70321;43.592;1.456;2023-07-13T08:32:23;21.16;64.67
65584;DHT22;70321;43.592;1.456;2023-07-13T08:34:50;21.14;64.83
65584;DHT22;70321;43.592;1.456;2023-07-13T08:37:18;21.09;65.29
65584;DHT22;70321;43.592;1.456;2023-07-13T08:39:45;21.11;65.63
65584;DHT22;70321;43.592;1.456;2023-07-13T08:42:42;21.09;67.81
65584;DHT22;70321;43.592;1.456;2023-07-13T08:45:23;21.12;67.28
65584;DHT22;70321;43.592;1.456;2023-07-13T08:47:55;21.14;66.70
65584;DHT22;70321;43.592;1.456;2023-07-13T08:50:26;21.14;66.04
65584;DHT22;70321;43.592;1.456;2023-07-13T08:52:56;21.12;65.39
65584;DHT22;70321;43.592;1.456;2023-07-13T08:55:30;21.15;63.67
65584;DHT22;70321;43.592;1.456;2023-07-13T08:58:11;21.18;64.01
65584;DHT22;70321;43.592;1.456;2023-07-13T09:03:41;21.22;64.09
65584;DHT22;70321;43.592;1.456;2023-07-13T09:06:12;21.24;64.48
65584;DHT22;70321;43.592;1.456;2023-07-13T09:08:58;21.31;65.56
65584;DHT22;70321;43.592;1.456;2023-07-13T09:11:42;21.34;64.91
65584;DHT22;70321;43.592;1.456;2023-07-13T09:17:22;21.41;65.65
65584;DHT22;70321;43.592;1.456;2023-07-13T09:19:57;21.41;63.36
65584;DHT22;70321;43.592;1.456;2023-07-13T09:22:29;21.50;64.22
65584;DHT22;70321;43.592;1.456;2023-07-13T09:25:22;21.45;63.05
65584;DHT22;70321;43.592;1.456;2023-07-13T09:27:46;21.50;62.77
65584;DHT22;70321;43.592;1.456;2023-07-13T09:32:51;21.63;63.08
65584;DHT22;70321;43.592;1.456;2023-07-13T09:35:25;21.78;64.71
65584;DHT22;70321;43.592;1.456;2023-07-13T09:38:15;21.92;63.95
65584;DHT22;70321;43.592;1.456;2023-07-13T09:43:36;22.00;61.69
65584;DHT22;70321;43.592;1.456;2023-07-13T09:46:03;22.03;62.04
65584;DHT22;70321;43.592;1.456;2023-07-13T09:48:35;22.07;62.79
65584;DHT22;70321;43.592;1.456;2023-07-13T09:51:15;22.17;63.21
65584;DHT22;70321;43.592;1.456;2023-07-13T09:53:42;22.29;63.84
65584;DHT22;70321;43.592;1.456;2023-07-13T09:56:23;22.39;62.51
65584;DHT22;70321;43.592;1.456;2023-07-13T09:58:50;22.53;62.99
65584;DHT22;70321;43.592;1.456;2023-07-13T10:01:34;22.50;61.31
65584;DHT22;70321;43.592;1.456;2023-07-13T10:04:03;22.50;61.63
65584;DHT22;70321;43.592;1.456;2023-07-13T10:06:36;22.58;62.84
65584;DHT22;70321;43.592;1.456;2023-07-13T10:09:07;22.64;61.68
65584;DHT22;70321;43.592;1.456;2023-07-13T10:11:35;22.58;60.95
65584;DHT22;70321;43.592;1.456;2023-07-13T10:14:15;22.63;61.16
65584;DHT22;70321;43.592;1.456;2023-07-13T10:16:44;22.67;61.50
65584;DHT22;70321;43.592;1.456;2023-07-13T10:19:24;22.74;60.78
65584;DHT22;70321;43.592;1.456;2023-07-13T10:21:54;22.77;61.00
65584;DHT22;70321;43.592;1.456;2023-07-13T10:24:24;22.79;61.13
65584;DHT22;70321;43.592;1.456;2023-07-13T10:29:40;22.69;61.68
65584;DHT22;70321;43.592;1.456;2023-07-13T10:32:10;22.71;61.95
65584;DHT22;70321;43.592;1.456;2023-07-13T10:34:39;22.78;61.15
65584;DHT22;70321;43.592;1.456;2023-07-13T10:37:09;22.85;62.06
65584;DHT22;70321;43.592;1.456;2023-07-13T10:39:42;22.88;61.25
65584;DHT22;70321;43.592;1.456;2023-07-13T10:42:26;22.87;60.94
65584;DHT22;70321;43.592;1.456;2023-07-13T10:44:54;22.94;61.28
65584;DHT22;70321;43.592;1.456;2023-07-13T10:47:21;22.95;61.64
65584;DHT22;70321;43.592;1.456;2023-07-13T10:49:53;23.02;60.56
65584;DHT22;70321;43.592;1.456;2023-07-13T10:52:44;23.11;61.45
65584;DHT22;70321;43.592;1.456;2023-07-13T11:01:14;23.26;60.15
65584;DHT22;70321;43.592;1.456;2023-07-13T11:03:56;23.30;61.06
65584;DHT22;70321;43.592;1.456;2023-07-13T11:06:39;23.26;60.25
65584;DHT22;70321;43.592;1.456;2023-07-13T11:12:01;23.30;60.66
65584;DHT22;70321;43.592;1.456;2023-07-13T11:14:30;23.35;61.45
65584;DHT22;70321;43.592;1.456;2023-07-13T11:16:57;23.38;60.92
65584;DHT22;70321;43.592;1.456;2023-07-13T11:19:28;23.43;60.42
65584;DHT22;70321;43.592;1.456;2023-07-13T11:29:52;23.66;59.88
65584;DHT22;70321;43.592;1.456;2023-07-13T11:32:32;23.72;61.30
65584;DHT22;70321;43.592;1.456;2023-07-13T11:34:59;23.70;59.28
65584;DHT22;70321;43.592;1.456;2023-07-13T11:37:27;23.74;59.54
65584;DHT22;70321;43.592;1.456;2023-07-13T11:39:56;23.77;59.15
65584;DHT22;70321;43.592;1.456;2023-07-13T11:42:22;23.73;58.82
65584;DHT22;70321;43.592;1.456;2023-07-13T11:44:50;23.74;59.15
65584;DHT22;70321;43.592;1.456;2023-07-13T11:47:40;23.83;60.23
65584;DHT22;70321;43.592;1.456;2023-07-13T11:50:18;23.92;59.56
65584;DHT22;70321;43.592;1.456;2023-07-13T11:52:45;23.92;58.16
65584;DHT22;70321;43.592;1.456;2023-07-13T11:55:17;23.89;58.07
65584;DHT22;70321;43.592;1.456;2023-07-13T11:58:07;23.87;58.23
65584;DHT22;70321;43.592;1.456;2023-07-13T12:00:37;23.94;57.82
65584;DHT22;70321;43.592;1.456;2023-07-13T12:03:05;24.03;58.03
65584;DHT22;70321;43.592;1.456;2023-07-13T12:05:32;24.17;58.42
65584;DHT22;70321;43.592;1.456;2023-07-13T12:07:59;24.28;58.97
65584;DHT22;70321;43.592;1.456;2023-07-13T12:10:28;24.27;57.52
65584;DHT22;70321;43.592;1.456;2023-07-13T12:13:05;24.26;57.65
65584;DHT22;70321;43.592;1.456;2023-07-13T12:15:43;24.27;56.63
65584;DHT22;70321;43.592;1.456;2023-07-13T12:18:19;24.30;57.04
65584;DHT22;70321;43.592;1.456;2023-07-13T12:20:46;24.33;57.89
65584;DHT22;70321;43.592;1.456;2023-07-13T12:23:31;24.44;57.27
65584;DHT22;70321;43.592;1.456;2023-07-13T12:26:01;24.48;56.96
65584;DHT22;70321;43.592;1.456;2023-07-13T12:28:33;24.53;57.53
65584;DHT22;70321;43.592;1.456;2023-07-13T12:31:03;24.56;56.68
65584;DHT22;70321;43.592;1.456;2023-07-13T12:33:31;24.51;56.55
65584;DHT22;70321;43.592;1.456;2023-07-13T12:36:03;24.50;56.21
65584;DHT22;70321;43.592;1.456;2023-07-13T12:38:32;24.56;56.25
65584;DHT22;70321;43.592;1.456;2023-07-13T12:41:01;24.64;56.45
65584;DHT22;70321;43.592;1.456;2023-07-13T12:43:33;24.67;56.13
65584;DHT22;70321;43.592;1.456;2023-07-13T12:46:14;24.63;57.15
65584;DHT22;70321;43.592;1.456;2023-07-13T12:48:43;24.65;56.77
65584;DHT22;70321;43.592;1.456;2023-07-13T12:51:25;24.74;56.53
65584;DHT22;70321;43.592;1.456;2023-07-13T12:54:17;24.75;57.41
65584;DHT22;70321;43.592;1.456;2023-07-13T12:56:49;24.87;57.26
65584;DHT22;70321;43.592;1.456;2023-07-13T12:59:22;24.89;55.67
65584;DHT22;70321;43.592;1.456;2023-07-13T13:01:50;24.89;55.05
65584;DHT22;70321;43.592;1.456;2023-07-13T13:04:17;24.79;55.25
65584;DHT22;70321;43.592;1.456;2023-07-13T13:07:00;24.69;56.36
65584;DHT22;70321;43.592;1.456;2023-07-13T13:09:27;24.68;56.18
65584;DHT22;70321;43.592;1.456;2023-07-13T13:11:54;24.67;55.48
65584;DHT22;70321;43.592;1.456;2023-07-13T13:14:21;24.67;55.57
65584;DHT22;70321;43.592;1.456;2023-07-13T13:16:49;24.69;56.33
65584;DHT22;70321;43.592;1.456;2023-07-13T13:19:20;24.64;56.12
65584;DHT22;70321;43.592;1.456;2023-07-13T13:21:48;24.75;56.59
65584;DHT22;70321;43.592;1.456;2023-07-13T13:24:18;24.82;56.34
65584;DHT22;70321;43.592;1.456;2023-07-13T13:26:47;24.91;57.24
65584;DHT22;70321;43.592;1.456;2023-07-13T13:29:20;24.95;55.64
65584;DHT22;70321;43.592;1.456;2023-07-13T13:31:47;24.99;56.35
65584;DHT22;70321;43.592;1.456;2023-07-13T13:34:16;25.02;54.70
65584;DHT22;70321;43.592;1.456;2023-07-13T13:36:44;25.04;55.70
65584;DHT22;70321;43.592;1.456;2023-07-13T13:39:34;24.98;55.71
65584;DHT22;70321;43.592;1.456;2023-07-13T13:42:02;24.92;54.68
65584;DHT22;70321;43.592;1.456;2023-07-13T13:44:29;24.91;54.24
65584;DHT22;70321;43.592;1.456;2023-07-13T13:46:56;24.88;54.42
65584;DHT22;70321;43.592;1.456;2023-07-13T13:49:24;24.87;54.37
65584;DHT22;70321;43.592;1.456;2023-07-13T13:51:53;24.88;55.50
65584;DHT22;70321;43.592;1.456;2023-07-13T13:54:21;24.92;54.46
65584;DHT22;70321;43.592;1.456;2023-07-13T13:56:50;24.95;54.91
65584;DHT22;70321;43.592;1.456;2023-07-13T13:59:17;24.98;55.76
65584;DHT22;70321;43.592;1.456;2023-07-13T14:01:46;24.98;55.89
65584;DHT22;70321;43.592;1.456;2023-07-13T14:04:19;25.01;55.80
65584;DHT22;70321;43.592;1.456;2023-07-13T14:06:46;25.02;55.80
65584;DHT22;70321;43.592;1.456;2023-07-13T14:09:16;25.07;55.17
65584;DHT22;70321;43.592;1.456;2023-07-13T14:11:45;25.12;53.84
65584;DHT22;70321;43.592;1.456;2023-07-13T14:14:20;25.09;53.84
65584;DHT22;70321;43.592;1.456;2023-07-13T14:16:47;25.12;54.57
65584;DHT22;70321;43.592;1.456;2023-07-13T14:19:20;25.07;53.96
65584;DHT22;70321;43.592;1.456;2023-07-13T14:21:47;25.04;54.33
65584;DHT22;70321;43.592;1.456;2023-07-13T14:24:16;25.08;55.08
65584;DHT22;70321;43.592;1.456;2023-07-13T14:26:42;25.19;55.43
65584;DHT22;70321;43.592;1.456;2023-07-13T14:29:15;25.25;56.43
65584;DHT22;70321;43.592;1.456;2023-07-13T14:31:44;25.31;55.44
65584;DHT22;70321;43.592;1.456;2023-07-13T14:34:11;25.38;54.17
65584;DHT22;70321;43.592;1.456;2023-07-13T14:36:44;25.53;55.67
65584;DHT22;70321;43.592;1.456;2023-07-13T14:39:14;25.58;53.71
65584;DHT22;70321;43.592;1.456;2023-07-13T14:41:43;25.62;53.42
65584;DHT22;70321;43.592;1.456;2023-07-13T14:44:12;25.58;53.03
65584;DHT22;70321;43.592;1.456;2023-07-13T14:46:40;25.52;53.58
65584;DHT22;70321;43.592;1.456;2023-07-13T14:49:16;25.46;53.57
65584;DHT22;70321;43.592;1.456;2023-07-13T14:51:47;25.39;53.83
65584;DHT22;70321;43.592;1.456;2023-07-13T14:54:14;25.39;54.00
65584;DHT22;70321;43.592;1.456;2023-07-13T14:56:41;25.41;53.73
65584;DHT22;70321;43.592;1.456;2023-07-13T14:59:07;25.38;52.69
65584;DHT22;70321;43.592;1.456;2023-07-13T15:01:36;25.39;53.90
65584;DHT22;70321;43.592;1.456;2023-07-13T15:04:03;25.36;54.97
65584;DHT22;70321;43.592;1.456;2023-07-13T15:06:31;25.42;52.51
65584;DHT22;70321;43.592;1.456;2023-07-13T15:08:57;25.41;52.56
65584;DHT22;70321;43.592;1.456;2023-07-13T15:11:24;25.38;53.54
65584;DHT22;70321;43.592;1.456;2023-07-13T15:13:51;25.33;53.30
65584;DHT22;70321;43.592;1.456;2023-07-13T15:16:22;25.29;52.83
65584;DHT22;70321;43.592;1.456;2023-07-13T15:18:50;25.32;53.89
65584;DHT22;70321;43.592;1.456;2023-07-13T15:21:23;25.35;54.06
65584;DHT22;70321;43.592;1.456;2023-07-13T15:23:50;25.36;54.86
65584;DHT22;70321;43.592;1.456;2023-07-13T15:26:19;25.45;54.28
65584;DHT22;70321;43.592;1.456;2023-07-13T15:28:46;25.50;53.63
65584;DHT22;70321;43.592;1.456;2023-07-13T15:31:20;25.58;51.93
65584;DHT22;70321;43.592;1.456;2023-07-13T15:33:49;25.63;50.43
65584;DHT22;70321;43.592;1.456;2023-07-13T15:36:20;25.69;51.62
65584;DHT22;70321;43.592;1.456;2023-07-13T15:38:48;25.76;51.33
65584;DHT22;70321;43.592;1.456;2023-07-13T15:41:27;25.82;52.26
65584;DHT22;70321;43.592;1.456;2023-07-13T15:43:57;25.83;51.17
65584;DHT22;70321;43.592;1.456;2023-07-13T15:46:27;25.83;49.75
65584;DHT22;70321;43.592;1.456;2023-07-13T15:48:57;25.77;51.05
65584;DHT22;70321;43.592;1.456;2023-07-13T15:51:27;25.77;52.03
65584;DHT22;70321;43.592;1.456;2023-07-13T15:53:56;25.80;50.51
65584;DHT22;70321;43.592;1.456;2023-07-13T15:56:28;25.86;51.04
65584;DHT22;70321;43.592;1.456;2023-07-13T15:58:56;25.85;51.39
65584;DHT22;70321;43.592;1.456;2023-07-13T16:01:23;25.79;50.24
65584;DHT22;70321;43.592;1.456;2023-07-13T16:03:50;25.72;50.66
65584;DHT22;70321;43.592;1.456;2023-07-13T16:06:28;25.73;50.89
65584;DHT22;70321;43.592;1.456;2023-07-13T16:08:55;25.79;50.78
65584;DHT22;70321;43.592;1.456;2023-07-13T16:11:25;25.77;50.15
65584;DHT22;70321;43.592;1.456;2023-07-13T16:13:53;25.76;49.15